Time;durP1;ratioP1;P1;durP2;ratioP2;P2;SDS_P1;SDS_P2;PMS_P1;PMS_P2;Temp;Humidity;BMP_temperature;BMP_pressure;BME280_temperature;BME280_humidity;BME280_pressure;Samples;Min_cycle;Max_cycle;Signal;HPM_P1;HPM_P2
2022/04/17 00:02:03;;;;;;;9.93;7.20;;;;;;;1.22;94.14;103362.56;5032198;28;20195;-46
2022/04/17 00:04:28;;;;;;;8.55;7.78;;;;;;;1.24;93.78;103367.91;5033354;28;20612;-47
2022/04/17 00:06:54;;;;;;;8.27;7.50;;;;;;;1.04;93.84;103367.06;5032792;28;20275;-48
2022/04/17 00:09:20;;;;;;;8.85;7.68;;;;;;;0.94;93.97;103362.22;5033046;28;20702;-47
2022/04/17 00:11:46;;;;;;;8.85;7.88;;;;;;;0.85;94.48;103365.38;5032666;28;20656;-47
2022/04/17 00:14:11;;;;;;;9.75;8.35;;;;;;;0.78;95.22;103353.66;5033344;28;20196;-47
2022/04/17 00:16:40;;;;;;;9.63;8.63;;;;;;;0.85;95.23;103349.53;5032911;28;20599;-46
2022/04/17 00:19:09;;;;;;;11.93;9.52;;;;;;;0.92;95.28;103348.06;5032645;28;20196;-46
2022/04/17 00:21:34;;;;;;;11.45;9.82;;;;;;;0.87;95.92;103349.63;5032772;28;20232;-46
2022/04/17 00:24:00;;;;;;;11.68;9.68;;;;;;;0.88;95.94;103343.53;5031577;28;20227;-47
2022/04/17 00:26:26;;;;;;;12.05;10.45;;;;;;;0.86;96.23;103346.09;5032705;28;20172;-47
2022/04/17 00:28:51;;;;;;;11.27;10.15;;;;;;;0.98;95.84;103340.41;5032868;28;20290;-46
2022/04/17 00:31:17;;;;;;;11.65;9.88;;;;;;;0.95;95.95;103341.19;5032523;28;20172;-47
2022/04/17 00:33:43;;;;;;;11.88;10.63;;;;;;;0.93;95.44;103344.59;5032925;28;20180;-46
2022/04/17 00:36:08;;;;;;;11.93;10.73;;;;;;;0.95;95.01;103335.00;5032402;28;20188;-46
2022/04/17 00:38:34;;;;;;;12.10;10.43;;;;;;;0.87;94.72;103331.16;5031025;28;20204;-48
2022/04/17 00:40:59;;;;;;;13.02;10.32;;;;;;;0.55;95.03;103322.78;5032955;28;20275;-45
2022/04/17 00:43:26;;;;;;;13.52;12.10;;;;;;;0.63;95.73;103315.19;5032445;28;20282;-45
2022/04/17 00:45:52;;;;;;;12.10;10.18;;;;;;;0.40;95.42;103307.19;5032204;28;20718;-45
2022/04/17 00:48:18;;;;;;;14.10;10.57;;;;;;;0.52;96.57;103312.06;5032316;28;20698;-46
2022/04/17 00:50:49;;;;;;;11.40;9.77;;;;;;;0.64;97.02;103317.00;5032387;28;20164;-46
2022/04/17 00:53:15;;;;;;;13.77;12.20;;;;;;;0.45;96.67;103302.09;5032938;28;20605;-46
2022/04/17 00:55:41;;;;;;;13.63;11.57;;;;;;;0.56;97.69;103301.72;5032252;28;20263;-46
2022/04/17 00:58:07;;;;;;;12.07;10.43;;;;;;;0.48;97.33;103299.59;5032256;28;20202;-45
2022/04/17 01:00:33;;;;;;;11.93;10.60;;;;;;;0.53;97.33;103298.06;5032221;28;20219;-44
2022/04/17 01:02:59;;;;;;;13.45;11.52;;;;;;;0.58;97.31;103297.41;5032501;28;20624;-46
2022/04/17 01:05:25;;;;;;;15.65;13.27;;;;;;;0.59;96.92;103296.59;5031869;28;20200;-45
2022/04/17 01:07:53;;;;;;;19.70;15.23;;;;;;;0.62;97.29;103290.53;5031426;28;20236;-46
2022/04/17 01:10:19;;;;;;;21.70;15.25;;;;;;;0.62;97.31;103295.81;5032177;28;20623;-45
2022/04/17 01:12:44;;;;;;;20.95;15.52;;;;;;;0.54;96.93;103298.13;5031668;28;20208;-47
2022/04/17 01:15:13;;;;;;;20.48;15.25;;;;;;;0.59;96.55;103296.59;5031791;28;20647;-48
2022/04/17 01:17:38;;;;;;;22.30;15.18;;;;;;;0.65;96.67;103289.75;5031885;28;20298;-48
2022/04/17 01:20:04;;;;;;;18.15;13.65;;;;;;;0.65;96.52;103302.97;5031594;28;20208;-48
2022/04/17 01:22:30;;;;;;;18.63;13.48;;;;;;;0.57;96.29;103300.00;5031888;28;20264;-47
2022/04/17 01:27:40;;;;;;;27.55;18.48;;;;;;;0.58;95.74;103297.41;5031065;28;20758;-48
2022/04/17 01:30:06;;;;;;;47.55;27.95;;;;;;;0.56;95.84;103296.44;5025478;28;20184;-48
2022/04/17 01:32:32;;;;;;;57.67;36.60;;;;;;;0.45;95.67;103302.09;4998066;28;20200;-49
2022/04/17 01:34:58;;;;;;;52.75;35.28;;;;;;;0.28;96.05;103299.63;5028347;28;20180;-49
2022/04/17 01:37:23;;;;;;;22.58;17.35;;;;;;;0.17;96.31;103296.50;5030682;28;20280;-47
2022/04/17 01:39:48;;;;;;;17.73;13.48;;;;;;;0.08;97.03;103296.09;5031693;28;20618;-48
2022/04/17 01:42:16;;;;;;;16.13;12.23;;;;;;;0.01;97.43;103294.03;5031569;28;20234;-46
2022/04/17 01:44:42;;;;;;;15.57;12.15;;;;;;;0.00;97.96;103294.88;5031055;28;20267;-47
2022/04/17 01:47:07;;;;;;;17.55;13.60;;;;;;;0.03;98.58;103292.38;5031237;28;20275;-48
2022/04/17 01:49:33;;;;;;;18.75;12.48;;;;;;;0.05;98.89;103295.09;5042972;28;20182;-49
2022/04/17 01:52:00;;;;;;;14.75;13.00;;;;;;;-0.08;98.74;103289.25;5051431;28;20561;-49
2022/04/17 01:54:27;;;;;;;17.48;13.63;;;;;;;-0.16;99.14;103277.44;5050560;28;20187;-48
2022/04/17 01:56:54;;;;;;;17.52;13.77;;;;;;;-0.08;99.91;103283.09;5049574;28;20179;-49
2022/04/17 01:59:22;;;;;;;18.15;13.85;;;;;;;-0.02;99.02;103288.63;5050991;28;20183;-48
2022/04/17 02:01:48;;;;;;;18.75;13.85;;;;;;;-0.06;99.00;103281.41;5049420;28;20245;-47
2022/04/17 02:04:14;;;;;;;17.83;13.98;;;;;;;0.01;99.15;103277.31;5050875;28;20179;-50
2022/04/17 02:06:40;;;;;;;21.02;14.75;;;;;;;0.00;99.40;103276.44;5050467;28;20217;-50
2022/04/17 02:09:07;;;;;;;17.67;14.00;;;;;;;0.02;99.48;103273.84;5050450;28;20191;-48
2022/04/17 02:11:33;;;;;;;20.50;14.93;;;;;;;0.01;100.00;103278.22;5050817;28;20638;-48
2022/04/17 02:14:00;;;;;;;23.05;14.85;;;;;;;0.05;100.00;103284.53;5050248;28;20202;-46
2022/04/17 02:16:26;;;;;;;19.70;15.07;;;;;;;0.02;99.22;103277.38;5049923;28;20172;-47
2022/04/17 02:18:52;;;;;;;19.25;13.88;;;;;;;0.11;99.14;103282.16;5050345;28;20325;-48
2022/04/17 02:21:19;;;;;;;21.20;13.77;;;;;;;0.06;99.10;103278.44;5050110;28;20274;-46
2022/04/17 02:23:45;;;;;;;20.13;14.60;;;;;;;0.11;99.24;103282.16;5049056;28;20178;-49
2022/04/17 02:26:13;;;;;;;20.25;14.90;;;;;;;0.12;99.36;103279.59;5048900;28;20517;-46
2022/04/17 02:28:40;;;;;;;17.42;13.18;;;;;;;-0.05;98.85;103273.56;5049193;28;20199;-50
2022/04/17 02:31:08;;;;;;;17.60;13.63;;;;;;;-0.13;99.08;103272.34;5050353;28;20236;-49
2022/04/17 02:33:36;;;;;;;19.38;13.27;;;;;;;0.04;99.21;103270.44;5050373;28;20219;-47
2022/04/17 02:36:01;;;;;;;17.73;14.45;;;;;;;0.02;99.06;103279.13;5050825;28;20275;-49
2022/04/17 02:38:26;;;;;;;18.15;13.95;;;;;;;0.03;98.51;103279.19;5048360;28;20321;-51
2022/04/17 02:40:53;;;;;;;14.95;12.13;;;;;;;0.08;98.88;103263.59;5049980;28;20221;-49
2022/04/17 02:43:19;;;;;;;17.33;13.05;;;;;;;0.10;98.87;103272.47;5051040;28;20171;-50
2022/04/17 02:45:44;;;;;;;18.63;14.00;;;;;;;-0.05;98.44;103264.75;5050052;28;20181;-47
2022/04/17 02:48:10;;;;;;;16.63;12.73;;;;;;;0.01;98.31;103261.50;5050011;28;20282;-49
2022/04/17 02:50:36;;;;;;;17.48;12.82;;;;;;;0.02;98.51;103268.56;5050177;28;20172;-51
2022/04/17 02:53:02;;;;;;;14.55;12.70;;;;;;;0.08;98.49;103264.47;5050229;28;20207;-50
2022/04/17 02:55:27;;;;;;;18.77;13.27;;;;;;;0.04;98.24;103269.53;5048832;28;20530;-50
2022/04/17 02:57:54;;;;;;;18.73;13.88;;;;;;;0.02;98.04;103265.94;5049366;28;20258;-49
2022/04/17 03:00:21;;;;;;;17.27;13.15;;;;;;;-0.04;98.21;103272.75;5050137;28;20609;-48
2022/04/17 03:05:37;;;;;;;18.17;13.43;;;;;;;-0.25;98.59;103272.66;5049580;28;20234;-48
2022/04/17 03:08:10;;;;;;;15.63;13.07;;;;;;;-0.29;98.85;103267.19;5049299;28;20281;-50
2022/04/17 03:10:37;;;;;;;15.93;12.40;;;;;;;-0.30;98.76;103258.41;5049867;28;20267;-50
2022/04/17 03:13:07;;;;;;;16.55;12.73;;;;;;;-0.34;99.07;103256.44;5049680;28;20269;-50
2022/04/17 03:15:33;;;;;;;15.00;12.55;;;;;;;-0.46;99.32;103266.41;5049771;28;20167;-50
2022/04/17 03:17:59;;;;;;;16.40;12.57;;;;;;;-0.48;99.18;103260.16;5049422;28;20218;-48
2022/04/17 03:20:28;;;;;;;16.13;12.77;;;;;;;-0.47;99.89;103267.25;5049408;28;20179;-49
2022/04/17 03:22:55;;;;;;;16.38;12.25;;;;;;;-0.49;100.00;103251.38;5049367;28;20210;-48
2022/04/17 03:25:20;;;;;;;17.83;12.48;;;;;;;-0.43;100.00;103256.94;5050039;28;20639;-48
2022/04/17 03:27:46;;;;;;;14.13;12.30;;;;;;;-0.43;100.00;103251.66;5049387;28;20317;-50
2022/04/17 03:30:19;;;;;;;16.20;12.95;;;;;;;-0.31;100.00;103253.06;5042379;28;20950;-50
2022/04/17 03:32:46;;;;;;;15.65;12.20;;;;;;;-0.24;99.65;103258.69;5020247;28;20212;-49
2022/04/17 03:35:12;;;;;;;16.98;12.48;;;;;;;-0.31;99.56;103261.84;5029168;28;20695;-50
2022/04/17 03:37:39;;;;;;;15.88;12.88;;;;;;;-0.33;99.77;103259.97;5036022;28;20269;-48
2022/04/17 03:40:05;;;;;;;14.63;12.52;;;;;;;-0.38;99.63;103264.16;5026278;28;20194;-50
2022/04/17 03:42:30;;;;;;;15.18;12.40;;;;;;;-0.45;99.86;103253.31;5036133;28;20183;-47
2022/04/17 03:44:56;;;;;;;15.05;13.07;;;;;;;-0.38;100.00;103258.88;5036215;28;20168;-49
2022/04/17 03:47:22;;;;;;;16.50;12.82;;;;;;;-0.47;99.62;103252.34;5035669;28;20302;-48
2022/04/17 03:49:47;;;;;;;16.90;12.93;;;;;;;-0.55;100.00;103266.88;5035137;28;20258;-50
2022/04/17 03:52:13;;;;;;;15.13;12.32;;;;;;;-0.58;100.00;103261.47;5036078;28;20192;-50
2022/04/17 03:54:38;;;;;;;19.00;13.90;;;;;;;-0.61;99.48;103256.09;5036453;28;20195;-51
2022/04/17 03:57:03;;;;;;;14.27;12.77;;;;;;;-0.58;100.00;103258.84;5035897;28;20233;-49
2022/04/17 03:59:31;;;;;;;15.80;13.05;;;;;;;-0.67;100.00;103253.16;5035604;28;20184;-51
2022/04/17 04:01:58;;;;;;;14.95;12.52;;;;;;;-0.69;100.00;103262.72;5035784;28;20160;-49
2022/04/17 04:04:23;;;;;;;18.13;13.65;;;;;;;-0.62;100.00;103265.69;5035921;28;20212;-48
2022/04/17 04:06:50;;;;;;;15.75;12.38;;;;;;;-0.48;100.00;103255.81;5035922;28;20664;-48
2022/04/17 04:09:16;;;;;;;16.50;13.40;;;;;;;-0.43;100.00;103249.03;5035770;28;20176;-50
2022/04/17 04:11:41;;;;;;;15.57;13.63;;;;;;;-0.45;100.00;103248.06;5035556;28;20245;-48
2022/04/17 04:14:06;;;;;;;15.00;13.10;;;;;;;-0.40;100.00;103252.63;5035566;28;20184;-49
2022/04/17 04:16:32;;;;;;;15.48;12.38;;;;;;;-0.31;100.00;103247.78;5035052;28;20172;-49
2022/04/17 04:18:57;;;;;;;14.98;12.48;;;;;;;-0.30;100.00;103245.22;5035046;28;20298;-49
2022/04/17 04:21:23;;;;;;;16.70;12.75;;;;;;;-0.28;100.00;103256.72;5035743;28;20172;-48
2022/04/17 04:23:48;;;;;;;17.30;13.10;;;;;;;-0.23;100.00;103246.41;5035691;28;20180;-48
2022/04/17 04:26:14;;;;;;;43.92;26.98;;;;;;;-0.22;100.00;103250.81;5034852;28;20180;-47
2022/04/17 04:28:39;;;;;;;40.30;26.75;;;;;;;-0.19;99.94;103258.00;5035164;28;20203;-48
2022/04/17 04:31:06;;;;;;;34.92;23.02;;;;;;;-0.16;99.69;103256.38;5035408;28;20168;-50
2022/04/17 04:33:36;;;;;;;33.88;21.15;;;;;;;-0.09;99.48;103253.22;5035599;28;20200;-51
2022/04/17 04:36:05;;;;;;;60.42;37.33;;;;;;;-0.24;99.13;103261.31;5033855;28;20191;-49
2022/04/17 04:38:31;;;;;;;114.85;61.78;;;;;;;-0.28;99.77;103256.72;5035473;28;20231;-48
2022/04/17 04:40:56;;;;;;;65.05;35.85;;;;;;;-0.24;99.98;103255.13;5035325;28;20222;-49
2022/04/17 04:43:22;;;;;;;40.38;25.20;;;;;;;-0.29;99.88;103244.38;5035588;28;20208;-48
2022/04/17 04:51:17;;;;;;;17.63;13.75;;;;;;;0.13;100.00;103247.16;5032307;28;20226;-49
2022/04/17 04:53:43;;;;;;;15.82;13.88;;;;;;;0.85;99.88;103246.63;5032074;28;20576;-49
2022/04/17 04:56:08;;;;;;;19.30;15.32;;;;;;;1.59;99.03;103247.78;5031691;28;20176;-49
2022/04/17 04:58:34;;;;;;;51.78;30.45;;;;;;;2.24;98.22;103252.78;5031823;28;20740;-50
2022/04/17 05:01:00;;;;;;;47.95;29.02;;;;;;;2.80;96.41;103242.31;5031949;28;20179;-49
2022/04/17 05:03:25;;;;;;;48.88;30.77;;;;;;;3.25;94.28;103242.88;5032439;28;20179;-48
2022/04/17 05:05:51;;;;;;;67.60;37.55;;;;;;;3.65;91.55;103237.88;5031670;28;20236;-50
2022/04/17 05:08:19;;;;;;;108.53;57.17;;;;;;;3.84;88.57;103234.00;5031374;28;20658;-48
2022/04/17 05:10:45;;;;;;;68.65;38.67;;;;;;;4.13;85.89;103232.16;5032042;28;20190;-49
2022/04/17 05:13:10;;;;;;;31.58;19.98;;;;;;;3.92;82.88;103235.13;5031936;28;20223;-49
2022/04/17 05:15:36;;;;;;;17.20;13.27;;;;;;;4.23;81.74;103235.97;5031724;28;20572;-49
2022/04/17 05:18:01;;;;;;;19.65;14.05;;;;;;;4.45;80.85;103225.03;5031725;28;20604;-48
2022/04/17 05:20:27;;;;;;;22.50;14.77;;;;;;;4.71;79.29;103225.69;5031862;28;20203;-49
2022/04/17 05:22:56;;;;;;;16.83;11.82;;;;;;;4.88;78.10;103234.09;5032023;28;20187;-49
2022/04/17 05:25:24;;;;;;;13.88;11.15;;;;;;;5.28;77.25;103219.06;5030053;28;20176;-48
2022/04/17 05:27:49;;;;;;;18.23;12.40;;;;;;;5.61;76.11;103230.41;5031614;28;20199;-50
2022/04/17 05:30:15;;;;;;;12.20;10.13;;;;;;;5.83;74.71;103223.75;5031626;28;20184;-50
2022/04/17 05:32:40;;;;;;;19.88;12.55;;;;;;;6.06;74.07;103211.84;5031858;28;20212;-49
2022/04/17 05:35:06;;;;;;;26.23;16.88;;;;;;;6.19;72.99;103213.84;5031612;28;20178;-50
2022/04/17 05:37:31;;;;;;;33.25;20.85;;;;;;;6.36;73.17;103221.22;5031244;28;20328;-49
2022/04/17 05:39:57;;;;;;;37.22;23.33;;;;;;;6.63;72.71;103220.81;5031826;28;20186;-49
2022/04/17 05:42:22;;;;;;;41.03;25.67;;;;;;;7.01;71.60;103205.41;5030159;28;20176;-50
2022/04/17 05:44:49;;;;;;;33.33;22.33;;;;;;;7.26;70.42;103208.47;5029903;28;20698;-49
2022/04/17 05:47:15;;;;;;;32.47;20.77;;;;;;;7.48;70.13;103211.38;5030703;28;20195;-47
2022/04/17 05:49:40;;;;;;;36.72;23.77;;;;;;;7.24;69.62;103199.53;5038166;28;20202;-47
2022/04/17 05:52:06;;;;;;;28.88;19.30;;;;;;;7.22;70.81;103206.63;5050609;28;20204;-47
2022/04/17 05:54:32;;;;;;;18.33;13.25;;;;;;;7.30;71.92;103198.72;5052105;28;20668;-48
2022/04/17 05:56:57;;;;;;;16.10;13.07;;;;;;;7.37;71.89;103211.28;5052147;28;20180;-46
2022/04/17 05:59:22;;;;;;;16.02;12.48;;;;;;;7.19;72.44;103203.91;5051611;28;20190;-51
2022/04/17 06:01:48;;;;;;;13.40;10.70;;;;;;;7.46;72.52;103205.16;5052159;28;20591;-47
2022/04/17 06:04:14;;;;;;;11.52;8.57;;;;;;;7.73;69.79;103205.50;5052364;28;20171;-48
2022/04/17 06:06:39;;;;;;;9.45;8.45;;;;;;;8.14;68.09;103205.06;5051564;28;20205;-49
2022/04/17 06:09:04;;;;;;;10.20;8.60;;;;;;;8.50;66.86;103210.75;5051422;28;20191;-47
2022/04/17 06:11:30;;;;;;;10.02;9.02;;;;;;;8.98;66.09;103191.53;5051806;28;20197;-47
2022/04/17 06:13:55;;;;;;;10.05;8.45;;;;;;;9.31;64.87;103187.25;5051384;28;20250;-50
2022/04/17 06:16:21;;;;;;;10.88;8.93;;;;;;;9.49;64.71;103179.31;5051175;28;20169;-46
2022/04/17 06:18:47;;;;;;;9.70;8.70;;;;;;;9.53;63.98;103187.34;5052021;28;20666;-47
2022/04/17 06:21:12;;;;;;;10.10;9.10;;;;;;;9.82;62.86;103180.31;5051384;28;20178;-46
2022/04/17 06:23:39;;;;;;;8.85;7.72;;;;;;;10.26;61.84;103179.50;5051542;28;20151;-47
2022/04/17 06:26:06;;;;;;;8.55;7.65;;;;;;;10.27;62.22;103183.06;5050887;28;20171;-45
2022/04/17 06:28:32;;;;;;;8.80;7.68;;;;;;;10.56;61.70;103174.16;5051201;28;20210;-46
2022/04/17 06:30:57;;;;;;;9.77;8.38;;;;;;;10.29;61.53;103179.53;5051291;28;20176;-44
2022/04/17 06:33:22;;;;;;;10.15;7.85;;;;;;;10.92;60.12;103170.56;5051141;28;20207;-48
2022/04/17 06:35:48;;;;;;;7.65;6.85;;;;;;;11.13;58.05;103166.94;5051551;28;20273;-44
2022/04/17 06:38:15;;;;;;;8.52;7.70;;;;;;;11.09;60.55;103162.47;5049463;28;20403;-46
2022/04/17 06:40:41;;;;;;;8.75;6.47;;;;;;;11.45;56.80;103164.13;5050977;28;20638;-45
2022/04/17 06:43:10;;;;;;;5.93;4.40;;;;;;;11.22;49.37;103157.97;5049403;28;20201;-46
2022/04/17 06:45:38;;;;;;;7.25;4.00;;;;;;;11.66;50.89;103168.50;5050697;28;20182;-44
2022/04/17 06:48:17;;;;;;;4.57;4.18;;;;;;;11.45;48.48;103160.53;5050853;28;20724;-45
2022/04/17 06:50:44;;;;;;;5.50;3.88;;;;;;;12.08;47.64;103154.84;5050679;28;20183;-49
2022/04/17 06:53:09;;;;;;;4.22;3.88;;;;;;;11.70;45.15;103147.91;5050836;28;20202;-46
2022/04/17 06:55:35;;;;;;;4.13;3.53;;;;;;;11.53;46.57;103148.88;5050864;28;20630;-46
2022/04/17 06:58:01;;;;;;;5.82;4.55;;;;;;;11.95;47.33;103154.03;5050592;28;20206;-45
2022/04/17 07:00:26;;;;;;;6.32;5.40;;;;;;;12.31;50.84;103160.94;5043679;28;20190;-46
2022/04/17 07:02:52;;;;;;;6.57;4.40;;;;;;;11.90;49.47;103155.88;5031019;28;20156;-46
2022/04/17 07:05:17;;;;;;;4.88;3.97;;;;;;;12.23;47.39;103153.84;5030136;28;20192;-48
2022/04/17 07:07:43;;;;;;;3.22;2.92;;;;;;;11.88;43.96;103145.13;5030417;28;20234;-47
2022/04/17 07:10:11;;;;;;;3.85;2.45;;;;;;;12.63;41.09;103134.66;5030303;28;20527;-46
2022/04/17 07:12:37;;;;;;;5.00;2.78;;;;;;;12.60;41.35;103138.28;5030257;28;20210;-45
2022/04/17 07:15:06;;;;;;;3.08;2.78;;;;;;;12.44;40.99;103129.47;5030294;28;20615;-44
2022/04/17 07:17:35;;;;;;;3.40;2.75;;;;;;;12.39;41.38;103133.97;5029844;28;20630;-45
2022/04/17 07:20:01;;;;;;;3.15;2.75;;;;;;;12.86;40.39;103119.19;5030757;28;20164;-46
2022/04/17 07:22:26;;;;;;;3.58;3.15;;;;;;;12.95;39.97;103120.88;5029585;28;20195;-46
2022/04/17 07:24:54;;;;;;;3.55;3.05;;;;;;;13.25;42.07;103121.41;5030419;28;20172;-46
2022/04/17 07:27:20;;;;;;;5.07;4.32;;;;;;;13.84;42.10;103119.75;5030047;28;20203;-46
2022/04/17 07:29:46;;;;;;;6.47;4.32;;;;;;;13.66;42.72;103110.09;5030529;28;20262;-44
2022/04/17 07:32:11;;;;;;;5.05;4.50;;;;;;;13.18;42.59;103123.28;5029718;28;20200;-47
2022/04/17 07:34:37;;;;;;;5.18;4.18;;;;;;;13.83;42.42;103112.56;5030665;28;20195;-46
2022/04/17 07:37:02;;;;;;;4.30;3.90;;;;;;;13.87;43.44;103105.31;5030954;28;20616;-49
2022/04/17 07:39:27;;;;;;;3.88;3.42;;;;;;;13.97;41.77;103102.47;5030406;28;20164;-45
2022/04/17 07:41:53;;;;;;;3.70;3.38;;;;;;;14.14;42.15;103098.56;5030927;28;20160;-46
2022/04/17 07:44:18;;;;;;;4.18;2.85;;;;;;;13.60;40.04;103097.63;5030666;28;20568;-48
2022/04/17 07:46:44;;;;;;;2.80;2.33;;;;;;;12.76;39.82;103104.91;5019265;28;20164;-44
2022/04/17 07:49:09;;;;;;;2.90;2.70;;;;;;;13.25;40.10;103102.56;5029706;28;20235;-46
2022/04/17 07:51:36;;;;;;;3.42;2.63;;;;;;;13.17;41.58;103105.38;5030786;28;20199;-46
2022/04/17 07:54:02;;;;;;;2.30;2.10;;;;;;;13.53;40.26;103104.00;5030980;28;20172;-44
2022/04/17 07:56:27;;;;;;;2.15;1.95;;;;;;;12.84;38.57;103106.66;5030733;28;20161;-45
2022/04/17 07:58:53;;;;;;;1.70;1.60;;;;;;;13.07;38.29;103112.63;5030622;28;20207;-49
2022/04/17 08:01:18;;;;;;;2.10;1.88;;;;;;;13.43;38.28;103104.16;5030511;28;20549;-44
2022/04/17 08:06:10;;;;;;;2.03;1.90;;;;;;;13.66;38.87;103109.22;5030477;28;20191;-46
2022/04/17 08:08:42;;;;;;;1.85;1.60;;;;;;;14.22;38.15;103092.13;5030355;28;20200;-46
2022/04/17 08:11:09;;;;;;;1.52;1.42;;;;;;;13.73;37.27;103101.03;5030336;28;20167;-46
2022/04/17 08:13:35;;;;;;;1.67;1.40;;;;;;;14.06;35.37;103097.81;5030414;28;20196;-45
2022/04/17 08:16:04;;;;;;;1.65;1.40;;;;;;;14.18;37.05;103094.91;5030945;28;20710;-46
2022/04/17 08:18:30;;;;;;;1.67;1.30;;;;;;;13.74;36.43;103094.72;5030221;28;20240;-48
2022/04/17 08:20:55;;;;;;;1.95;1.50;;;;;;;14.61;36.72;103092.38;5030307;28;20200;-48
2022/04/17 08:23:21;;;;;;;1.00;1.00;;;;;;;13.50;34.02;103085.19;5032081;28;20183;-45
2022/04/17 08:25:49;;;;;;;1.20;1.10;;;;;;;14.33;36.07;103078.47;5034317;28;20164;-45
2022/04/17 08:28:15;;;;;;;1.35;1.25;;;;;;;14.10;35.12;103076.19;5034184;28;20290;-46
2022/04/17 08:30:40;;;;;;;1.83;1.30;;;;;;;13.99;35.58;103076.38;5034121;28;20200;-46
2022/04/17 08:33:07;;;;;;;1.45;1.30;;;;;;;13.81;35.50;103073.97;5033024;28;20503;-44
2022/04/17 08:35:34;;;;;;;1.35;1.25;;;;;;;14.79;35.25;103083.03;5033538;28;20180;-45
2022/04/17 08:38:03;;;;;;;1.55;1.40;;;;;;;14.62;35.88;103074.38;5031081;28;20694;-45
2022/04/17 08:40:29;;;;;;;1.88;1.70;;;;;;;14.59;36.16;103060.97;5033523;28;20192;-45
2022/04/17 08:42:56;;;;;;;2.10;1.90;;;;;;;14.98;35.87;103061.09;5033203;28;20199;-49
2022/04/17 08:45:22;;;;;;;2.63;1.73;;;;;;;14.94;37.26;103068.34;5039418;28;20179;-46
2022/04/17 08:47:48;;;;;;;1.70;1.60;;;;;;;15.17;33.23;103069.66;5052936;28;20211;-47
2022/04/17 08:50:16;;;;;;;1.88;1.77;;;;;;;14.15;37.25;103068.03;5053134;28;20649;-47
2022/04/17 08:52:45;;;;;;;1.92;1.70;;;;;;;14.92;35.99;103074.69;5052819;28;20207;-47
2022/04/17 08:55:10;;;;;;;2.00;1.80;;;;;;;15.36;36.32;103065.63;5052302;28;20291;-47
2022/04/17 08:57:36;;;;;;;3.03;1.90;;;;;;;14.93;36.46;103068.34;5052122;28;20749;-47
2022/04/17 09:00:08;;;;;;;2.05;1.70;;;;;;;15.05;36.10;103070.81;5052273;28;20543;-47
2022/04/17 09:02:34;;;;;;;2.05;1.85;;;;;;;14.78;36.04;103065.06;5052133;28;20222;-47
2022/04/17 09:05:07;;;;;;;2.05;1.90;;;;;;;14.57;35.13;103054.69;5052807;28;20199;-47
2022/04/17 09:07:40;;;;;;;2.45;1.83;;;;;;;14.54;37.58;103054.69;5050325;28;20199;-46
2022/04/17 09:10:06;;;;;;;1.98;1.70;;;;;;;14.88;37.87;103062.19;5052123;28;20164;-52
2022/04/17 09:12:32;;;;;;;2.65;1.75;;;;;;;15.13;37.02;103058.06;5051791;28;20264;-50
2022/04/17 09:14:57;;;;;;;1.65;1.27;;;;;;;15.53;35.33;103054.44;5051928;28;20167;-47
2022/04/17 09:17:29;;;;;;;1.50;1.40;;;;;;;14.94;35.28;103048.56;5051639;28;20294;-47
2022/04/17 09:19:55;;;;;;;1.50;1.30;;;;;;;14.97;34.94;103045.78;5051829;28;20210;-48
2022/04/17 09:22:21;;;;;;;20.42;12.13;;;;;;;14.81;33.87;103046.09;5050623;28;20556;-48
2022/04/17 09:24:46;;;;;;;5.57;4.25;;;;;;;15.29;32.79;103028.00;5051583;28;20179;-48
2022/04/17 09:27:11;;;;;;;16.30;10.98;;;;;;;15.29;33.04;103033.41;5051270;28;20218;-47
2022/04/17 09:29:38;;;;;;;1.20;1.10;;;;;;;15.61;32.55;103022.72;5049841;28;20174;-47
2022/04/17 09:32:12;;;;;;;1.33;1.10;;;;;;;15.50;32.53;103019.38;5051972;28;20203;-50
2022/04/17 09:34:50;;;;;;;2.50;1.58;;;;;;;15.26;32.86;103026.22;5050918;28;20645;-45
2022/04/17 09:37:20;;;;;;;2.22;1.20;;;;;;;16.03;33.29;103022.59;5051213;28;20199;-45
2022/04/17 09:39:47;;;;;;;1.35;1.25;;;;;;;15.20;33.18;103021.88;5051225;28;20240;-45
2022/04/17 09:42:19;;;;;;;1.73;1.27;;;;;;;14.87;33.63;103025.28;5051405;28;20191;-47
2022/04/17 09:44:46;;;;;;;1.30;1.20;;;;;;;14.92;33.56;103018.00;5051413;28;20187;-48
2022/04/17 09:47:16;;;;;;;2.08;1.65;;;;;;;14.14;34.50;103015.00;5051555;28;20235;-45
2022/04/17 09:50:07;;;;;;;1.65;1.55;;;;;;;15.08;34.29;102997.84;5051306;28;20183;-46
2022/04/17 09:52:52;;;;;;;6.10;4.30;;;;;;;15.29;34.30;103001.88;5051254;28;20632;-48
2022/04/17 09:55:27;;;;;;;3.03;1.48;;;;;;;15.54;32.58;102985.06;5050807;28;20195;-48
2022/04/17 09:57:57;;;;;;;2.22;1.65;;;;;;;14.72;34.15;102991.44;5051155;28;20650;-46
2022/04/17 10:00:23;;;;;;;1.70;1.15;;;;;;;14.66;34.25;102989.75;5051317;28;20476;-46
2022/04/17 10:02:49;;;;;;;1.40;1.30;;;;;;;14.72;33.69;102989.63;5051689;28;20795;-47
2022/04/17 10:05:17;;;;;;;1.35;1.20;;;;;;;14.73;32.71;102983.31;5050925;28;20175;-46
2022/04/17 10:07:44;;;;;;;1.33;1.23;;;;;;;15.38;34.03;102979.16;5051035;28;20610;-46
2022/04/17 10:10:12;;;;;;;1.00;1.00;;;;;;;15.62;33.75;102961.47;5051093;28;20547;-46
2022/04/17 10:12:41;;;;;;;3.38;1.42;;;;;;;16.02;32.54;102964.03;5051157;28;20262;-46
2022/04/17 10:15:07;;;;;;;1.73;1.42;;;;;;;15.17;32.09;102977.84;5050983;28;20180;-44
2022/04/17 10:17:34;;;;;;;1.60;1.50;;;;;;;15.31;33.14;102966.75;5050501;28;20771;-47
2022/04/17 10:20:06;;;;;;;1.30;1.20;;;;;;;15.42;31.94;102959.25;5051090;28;20179;-50
2022/04/17 10:22:37;;;;;;;1.52;1.20;;;;;;;15.62;33.01;103870.38;5040491;28;20857;-47
2022/04/17 10:25:08;;;;;;;1.58;1.08;;;;;;;15.24;31.88;103836.56;5050770;28;20168;-48
2022/04/17 10:27:40;;;;;;;1.35;1.25;;;;;;;15.42;32.47;102960.13;5050865;28;20310;-46
2022/04/17 10:30:12;;;;;;;1.00;1.00;;;;;;;16.30;32.27;102947.03;5050521;28;20159;-48
2022/04/17 10:32:57;;;;;;;1.15;1.10;;;;;;;14.28;33.91;102950.94;5049061;28;20207;-51
2022/04/17 10:35:30;;;;;;;1.52;0.90;;;;;;;13.16;33.92;102959.13;5050160;28;20274;-50
2022/04/17 10:38:32;;;;;;;1.27;1.10;;;;;;;13.06;30.64;102949.41;5050428;28;20290;-43
2022/04/17 10:41:02;;;;;;;2.00;1.20;;;;;;;14.69;33.57;102945.63;5050319;28;20505;-45
2022/04/17 10:43:57;;;;;;;1.20;1.10;;;;;;;15.24;33.27;102929.06;5048573;28;20183;-46
2022/04/17 10:46:23;;;;;;;1.25;1.10;;;;;;;15.26;34.25;102929.00;5049423;28;20160;-49
2022/04/17 10:48:50;;;;;;;1.75;1.30;;;;;;;14.30;33.62;102938.31;5049878;28;20573;-52
2022/04/17 10:51:26;;;;;;;1.00;0.93;;;;;;;14.12;35.00;102941.34;5050627;28;20171;-47
2022/04/17 10:54:03;;;;;;;1.83;1.23;;;;;;;14.88;33.64;102929.94;5050021;28;20201;-46
2022/04/17 10:56:39;;;;;;;1.73;1.17;;;;;;;15.33;32.00;102922.56;5050425;28;20693;-44
2022/04/17 10:59:18;;;;;;;1.40;1.30;;;;;;;14.22;31.04;102927.66;5049992;28;20296;-45
2022/04/17 11:01:43;;;;;;;1.58;1.27;;;;;;;14.75;34.05;102915.81;5049820;28;20175;-46
2022/04/17 11:04:16;;;;;;;2.30;1.33;;;;;;;15.03;33.21;102916.06;5050388;28;20277;-48
2022/04/17 11:06:43;;;;;;;3.13;1.15;;;;;;;15.72;33.00;102902.69;5049669;28;20645;-45
2022/04/17 11:09:20;;;;;;;1.35;1.10;;;;;;;15.79;31.27;102898.91;5049749;28;20202;-47
2022/04/17 11:11:46;;;;;;;1.48;1.10;;;;;;;15.74;31.48;102899.03;5049807;28;20175;-49
2022/04/17 11:14:14;;;;;;;0.90;0.90;;;;;;;15.57;31.48;102885.94;5048433;28;20202;-49
2022/04/17 11:16:49;;;;;;;1.50;1.05;;;;;;;14.84;33.02;102892.19;5049947;28;20182;-47
2022/04/17 11:19:20;;;;;;;2.22;1.30;;;;;;;14.57;33.00;102892.84;5049550;28;20265;-47
2022/04/17 11:21:49;;;;;;;1.88;1.20;;;;;;;14.09;38.19;102911.78;5049317;28;20654;-50
2022/04/17 11:24:15;;;;;;;2.88;1.20;;;;;;;13.58;40.48;102910.03;5049607;28;20252;-46
2022/04/17 11:26:52;;;;;;;1.17;1.08;;;;;;;13.57;37.92;102902.84;5048314;28;20668;-47
2022/04/17 11:29:43;;;;;;;2.05;1.10;;;;;;;13.36;37.50;102898.75;5049541;28;20189;-50
2022/04/17 11:32:17;;;;;;;1.58;1.45;;;;;;;13.32;43.41;102900.56;5049246;28;20564;-50
2022/04/17 11:34:52;;;;;;;2.10;1.50;;;;;;;13.29;40.04;102899.72;5049594;28;20638;-46